OTBH/IUD METAR and TAF weather

Enter ICAO airport designator
Station Type Date Time Source
OTBH METAR 2019/05/23 18:56 UTC NOAA

OTBH 231856Z 06001KT 9000 HZ CLR 31/17 A2979 RMK AO2A SLP084 WND DATA ESTMD ALSTG/SLP ESTMD $


Station Type Date Time Source
OTBH Decoded METAR 2019/05/23 18:56 UTC NOAA

Station name not available
May 23, 2019 - 02:56 PM EDT / 2019.05.23 1856 UTC
Wind: from the ENE (060 degrees) at 1 MPH (1 KT):0
Visibility: 5 mile(s):0
Sky conditions: clear
Weather: haze
Temperature: 87 F (31 C)
Dew Point: 62 F (17 C)
Relative Humidity: 43%
Pressure (altimeter): 29.79 in. Hg (1008 hPa)
ob: OTBH 231856Z 06001KT 9000 HZ CLR 31/17 A2979 RMK AO2A SLP084 WND DATA ESTMD ALSTG/SLP ESTMD
cycle: 19

Station Type Date Time Source
OTBH TAF 2019/05/23 16:06 UTC NOAA

TAF OTBH 231600Z 2316/2422 08009KT 8000 HZ SKC QNH2973INS WND VRB06KT AFT 2318
BECMG 2407/2408 35010G15KT 8000 HZ SKC QNH2976INS
BECMG 2414/2415 06009KT 8000 HZ SKC QNH2973INS TX40/2411Z TN25/2402Z

Example: see airport list